createdAt,value
2023-01-09T00:01:38.944Z,0.96
2023-01-09T00:04:09.779Z,0.98
2023-01-09T00:06:40.306Z,1.06
2023-01-09T00:09:09.666Z,0.99
2023-01-09T00:11:39.261Z,0.99
2023-01-09T00:14:11.199Z,0.95
2023-01-09T00:16:40.693Z,1.13
2023-01-09T00:19:10.026Z,1.00
2023-01-09T00:21:39.825Z,1.16
2023-01-09T00:24:09.933Z,1.19
2023-01-09T00:26:39.268Z,1.20
2023-01-09T00:29:12.967Z,1.22
2023-01-09T00:31:42.487Z,1.24
2023-01-09T00:34:13.810Z,1.19
2023-01-09T00:36:42.965Z,1.28
2023-01-09T00:39:12.296Z,1.22
2023-01-09T00:41:45.659Z,1.28
2023-01-09T00:44:21.509Z,1.25
2023-01-09T00:46:59.079Z,1.36
2023-01-09T00:49:32.511Z,1.23
2023-01-09T00:52:02.227Z,1.26
2023-01-09T00:54:33.205Z,1.26
2023-01-09T00:57:02.672Z,1.38
2023-01-09T00:59:33.216Z,1.38
2023-01-09T01:02:02.430Z,1.33
2023-01-09T01:04:49.250Z,1.40
2023-01-09T01:07:36.110Z,1.38
2023-01-09T01:10:07.402Z,1.25
2023-01-09T01:12:36.737Z,1.21
2023-01-09T01:15:09.061Z,1.22
2023-01-09T01:17:41.175Z,1.22
2023-01-09T01:20:14.472Z,1.21
2023-01-09T01:22:44.260Z,1.25
2023-01-09T01:25:17.019Z,1.29
2023-01-09T01:27:47.032Z,1.25
2023-01-09T01:30:19.195Z,1.24
2023-01-09T01:32:48.429Z,1.25
2023-01-09T01:35:17.704Z,1.25
2023-01-09T01:37:49.162Z,1.27
2023-01-09T01:40:20.232Z,1.22
2023-01-09T01:42:51.772Z,1.28
2023-01-09T01:45:24.692Z,1.29
2023-01-09T01:48:00.140Z,1.41
2023-01-09T01:50:34.372Z,1.51
2023-01-09T01:53:14.374Z,1.48
2023-01-09T01:55:52.473Z,1.42
2023-01-09T01:58:22.055Z,1.40
2023-01-09T02:00:52.665Z,1.52
2023-01-09T02:03:27.334Z,1.58
2023-01-09T02:05:56.650Z,1.55
2023-01-09T02:08:27.214Z,1.55
2023-01-09T02:10:57.782Z,1.54
2023-01-09T02:13:28.351Z,1.52
2023-01-09T02:16:34.924Z,1.55
2023-01-09T02:19:24.724Z,1.57
2023-01-09T02:22:08.724Z,1.64
2023-01-09T02:25:09.565Z,1.71
2023-01-09T02:28:22.044Z,1.85
2023-01-09T02:30:57.021Z,2.07
2023-01-09T02:33:43.735Z,1.95
2023-01-09T02:36:25.409Z,1.92
2023-01-09T02:39:12.186Z,1.92
2023-01-09T02:41:51.366Z,1.90
2023-01-09T02:44:24.795Z,2.08
2023-01-09T02:47:07.457Z,2.01
2023-01-09T02:49:39.721Z,2.17
2023-01-09T02:52:32.723Z,2.36
2023-01-09T02:55:12.163Z,3.11
2023-01-09T02:57:57.215Z,3.37
2023-01-09T03:00:40.272Z,3.39
2023-01-09T03:03:18.993Z,3.74
2023-01-09T03:05:57.322Z,3.89
2023-01-09T03:08:34.439Z,4.05
2023-01-09T03:11:07.807Z,4.58
2023-01-09T03:13:47.072Z,4.95
2023-01-09T03:16:22.504Z,5.17
2023-01-09T03:18:55.113Z,5.51
2023-01-09T03:21:25.149Z,5.74
2023-01-09T03:23:57.265Z,6.05
2023-01-09T03:26:29.379Z,6.48
2023-01-09T03:28:59.769Z,6.67
2023-01-09T03:31:29.188Z,6.67
2023-01-09T03:33:59.911Z,6.81
2023-01-09T03:36:29.180Z,6.84
2023-01-09T03:38:59.501Z,7.04
2023-01-09T03:41:29.032Z,7.24
2023-01-09T03:43:58.166Z,7.32
2023-01-09T03:46:27.394Z,7.33
2023-01-09T03:48:56.527Z,7.34
2023-01-09T03:51:27.125Z,7.49
2023-01-09T03:53:57.338Z,7.69
2023-01-09T03:56:26.689Z,7.73
2023-01-09T03:58:56.167Z,7.75
2023-01-09T04:01:25.409Z,7.94
2023-01-09T04:03:54.740Z,7.84
2023-01-09T04:06:24.138Z,7.77
2023-01-09T04:08:55.001Z,7.97
2023-01-09T04:11:24.161Z,8.25
2023-01-09T04:13:53.378Z,8.26
2023-01-09T04:16:22.594Z,7.84
2023-01-09T04:18:51.916Z,7.31
2023-01-09T04:21:21.212Z,6.64
2023-01-09T04:23:59.219Z,6.21
2023-01-09T04:26:28.591Z,5.68
2023-01-09T04:28:58.015Z,5.47
2023-01-09T04:31:27.430Z,5.27
2023-01-09T04:33:56.624Z,4.91
2023-01-09T04:36:29.010Z,4.70
2023-01-09T04:39:02.483Z,4.58
2023-01-09T04:41:54.511Z,4.24
2023-01-09T04:44:26.997Z,4.26
2023-01-09T04:46:58.978Z,4.19
2023-01-09T04:49:28.402Z,4.05
2023-01-09T04:51:57.788Z,4.00
2023-01-09T04:54:28.983Z,3.86
2023-01-09T04:56:58.171Z,3.79
2023-01-09T04:59:27.288Z,3.86
2023-01-09T05:01:58.437Z,3.93
2023-01-09T05:04:27.834Z,4.17
2023-01-09T05:06:57.063Z,4.01
2023-01-09T05:09:27.707Z,4.05
2023-01-09T05:11:56.952Z,4.15
2023-01-09T05:14:26.489Z,4.13
2023-01-09T05:16:57.018Z,4.13
2023-01-09T05:19:26.795Z,4.07
2023-01-09T05:21:55.947Z,3.93
2023-01-09T05:25:00.370Z,4.06
2023-01-09T05:27:31.809Z,4.06
2023-01-09T05:30:01.377Z,3.92
2023-01-09T05:32:34.706Z,3.78
2023-01-09T05:35:05.513Z,3.73
2023-01-09T05:37:34.916Z,3.47
2023-01-09T05:40:06.979Z,3.41
2023-01-09T05:42:36.191Z,3.36
2023-01-09T05:45:06.555Z,3.27
2023-01-09T05:47:35.717Z,3.20
2023-01-09T05:50:07.046Z,3.25
2023-01-09T05:52:36.271Z,3.27
2023-01-09T05:55:08.945Z,3.22
2023-01-09T05:57:38.298Z,3.32
2023-01-09T06:00:09.509Z,3.26
2023-01-09T06:02:38.841Z,3.01
2023-01-09T06:05:10.413Z,2.81
2023-01-09T06:07:40.873Z,2.70
2023-01-09T06:10:14.363Z,2.64
2023-01-09T06:12:49.957Z,2.83
2023-01-09T06:15:20.593Z,2.78
2023-01-09T06:17:49.749Z,2.83
2023-01-09T06:20:19.304Z,2.80
2023-01-09T06:22:52.016Z,2.86
2023-01-09T06:25:22.874Z,2.74
2023-01-09T06:27:52.904Z,2.66
2023-01-09T06:30:22.698Z,2.55
2023-01-09T06:32:52.155Z,2.64
2023-01-09T06:35:22.458Z,2.71
2023-01-09T06:37:51.692Z,2.83
2023-01-09T06:40:22.515Z,2.88
2023-01-09T06:42:51.845Z,2.88
2023-01-09T06:45:21.059Z,2.79
2023-01-09T06:47:50.218Z,2.82
2023-01-09T06:50:19.834Z,2.78
2023-01-09T06:52:49.135Z,2.72
2023-01-09T06:55:18.538Z,2.83
2023-01-09T06:57:52.163Z,2.70
2023-01-09T07:00:22.420Z,2.73
2023-01-09T07:02:51.746Z,2.69
2023-01-09T07:05:20.919Z,2.67
2023-01-09T07:07:50.201Z,2.68
2023-01-09T07:10:19.558Z,2.62
2023-01-09T07:12:50.353Z,2.85
2023-01-09T07:15:19.465Z,2.80
2023-01-09T07:17:50.079Z,2.66
2023-01-09T07:20:19.707Z,2.69
2023-01-09T07:22:49.077Z,2.67
2023-01-09T07:25:18.631Z,2.65
2023-01-09T07:27:49.461Z,2.60
2023-01-09T07:30:19.609Z,2.61
2023-01-09T07:32:48.761Z,2.65
2023-01-09T07:35:18.609Z,2.74
2023-01-09T07:37:48.214Z,2.83
2023-01-09T07:40:17.583Z,2.92
2023-01-09T07:42:46.887Z,3.00
2023-01-09T07:45:17.814Z,3.11
2023-01-09T07:47:47.544Z,3.27
2023-01-09T07:50:17.096Z,3.33
2023-01-09T07:52:46.915Z,3.50
2023-01-09T07:55:17.640Z,3.64
2023-01-09T07:57:51.094Z,3.65
2023-01-09T08:00:22.743Z,3.67
2023-01-09T08:02:55.532Z,3.65
2023-01-09T08:05:24.846Z,3.62
2023-01-09T08:07:54.004Z,3.54
2023-01-09T08:10:23.367Z,3.49
2023-01-09T08:12:52.859Z,3.48
2023-01-09T08:15:23.653Z,3.50
2023-01-09T08:17:52.965Z,3.58
2023-01-09T08:20:22.223Z,3.57
2023-01-09T08:22:53.647Z,3.55
2023-01-09T08:25:23.115Z,3.69
2023-01-09T08:27:52.707Z,3.92
2023-01-09T08:30:23.465Z,3.89
2023-01-09T08:32:54.767Z,3.89
2023-01-09T08:35:24.047Z,3.95
2023-01-09T08:37:53.580Z,4.07
2023-01-09T08:40:22.784Z,4.21
2023-01-09T08:43:09.417Z,4.19
2023-01-09T08:45:57.493Z,4.21
2023-01-09T08:48:27.092Z,4.35
2023-01-09T08:50:56.482Z,4.41
2023-01-09T08:53:25.788Z,4.51
2023-01-09T08:55:54.895Z,4.53
2023-01-09T08:58:24.300Z,4.61
2023-01-09T09:00:55.043Z,4.62
2023-01-09T09:03:24.243Z,4.72
2023-01-09T09:05:53.420Z,4.77
2023-01-09T09:08:22.633Z,4.74
2023-01-09T09:10:51.811Z,4.82
2023-01-09T09:13:21.046Z,4.89
2023-01-09T09:15:50.530Z,4.93
2023-01-09T09:18:21.253Z,4.92
2023-01-09T09:20:50.568Z,5.00
2023-01-09T09:23:19.868Z,4.97
2023-01-09T09:25:49.100Z,5.02
2023-01-09T09:28:18.418Z,5.13
2023-01-09T09:30:47.753Z,5.17
2023-01-09T09:33:17.083Z,5.09
2023-01-09T09:35:47.675Z,5.06
2023-01-09T09:38:17.048Z,5.15
2023-01-09T09:41:35.316Z,5.14
2023-01-09T09:44:43.869Z,5.17
2023-01-09T09:47:32.714Z,5.19
2023-01-09T09:50:16.339Z,5.27
2023-01-09T09:52:57.530Z,5.39
2023-01-09T09:55:33.374Z,5.48
2023-01-09T09:58:08.847Z,5.69
2023-01-09T10:00:38.094Z,5.81
2023-01-09T10:03:13.938Z,6.01
2023-01-09T10:05:47.517Z,6.13
2023-01-09T10:08:32.147Z,6.21
2023-01-09T10:11:02.491Z,6.39
2023-01-09T10:13:49.707Z,6.60
2023-01-09T10:16:35.555Z,6.55
2023-01-09T10:19:22.744Z,6.58
2023-01-09T10:22:03.250Z,6.99
2023-01-09T10:24:50.793Z,7.47
2023-01-09T10:27:37.413Z,7.75
2023-01-09T10:30:26.784Z,7.94
2023-01-09T10:33:07.155Z,8.26
2023-01-09T10:35:54.232Z,8.40
2023-01-09T10:38:29.975Z,8.35
2023-01-09T10:41:08.064Z,8.01
2023-01-09T10:43:46.263Z,7.74
2023-01-09T10:46:22.953Z,7.62
2023-01-09T10:48:57.092Z,7.51
2023-01-09T10:51:32.966Z,7.45
2023-01-09T10:54:02.171Z,7.36
2023-01-09T10:56:39.878Z,7.33
2023-01-09T10:59:11.117Z,7.14
2023-01-09T11:01:43.410Z,7.23
2023-01-09T11:04:24.797Z,7.14
2023-01-09T11:06:59.896Z,7.25
2023-01-09T11:09:29.177Z,7.26
2023-01-09T11:11:59.807Z,7.17
2023-01-09T11:14:31.576Z,7.17
2023-01-09T11:17:04.059Z,7.09
2023-01-09T11:19:34.156Z,7.10
2023-01-09T11:22:16.204Z,7.12
2023-01-09T11:24:46.350Z,7.07
2023-01-09T11:27:27.158Z,6.89
2023-01-09T11:30:24.102Z,6.83
2023-01-09T11:32:53.694Z,6.92
2023-01-09T11:35:28.632Z,6.71
2023-01-09T11:38:05.523Z,6.63
2023-01-09T11:40:49.536Z,6.63
2023-01-09T11:43:32.856Z,6.70
2023-01-09T11:46:06.555Z,6.58
2023-01-09T11:48:54.290Z,6.45
2023-01-09T11:51:26.296Z,6.37
2023-01-09T11:54:19.486Z,6.31
2023-01-09T11:56:50.583Z,6.30
2023-01-09T11:59:26.205Z,6.28
2023-01-09T12:02:36.896Z,6.25
2023-01-09T12:05:21.412Z,6.25
2023-01-09T12:08:12.370Z,6.25
2023-01-09T12:11:08.103Z,6.30
2023-01-09T12:13:52.846Z,6.25
2023-01-09T12:16:35.932Z,6.43
2023-01-09T12:19:28.328Z,6.26
2023-01-09T12:22:07.455Z,6.26
2023-01-09T12:25:15.155Z,6.17
2023-01-09T12:28:01.298Z,6.19
2023-01-09T12:30:51.206Z,6.21
2023-01-09T12:33:41.624Z,6.30
2023-01-09T12:36:21.139Z,6.32
2023-01-09T12:38:56.156Z,6.34
2023-01-09T12:42:00.542Z,6.43
2023-01-09T12:44:54.338Z,6.50
2023-01-09T12:47:50.129Z,6.57
2023-01-09T12:51:15.794Z,6.68
2023-01-09T12:53:52.350Z,6.66
2023-01-09T12:56:27.699Z,6.63
2023-01-09T12:59:01.835Z,6.63
2023-01-09T13:01:38.976Z,6.60
2023-01-09T13:04:16.722Z,6.59
2023-01-09T13:06:52.512Z,6.60
2023-01-09T13:09:28.925Z,6.67
2023-01-09T13:12:08.706Z,6.69
2023-01-09T13:14:51.560Z,6.76
2023-01-09T13:17:28.426Z,6.80
2023-01-09T13:19:57.737Z,6.84
2023-01-09T13:22:29.980Z,6.92
2023-01-09T13:25:43.435Z,6.88
2023-01-09T13:28:23.502Z,6.81
2023-01-09T13:31:28.658Z,6.84
2023-01-09T13:34:02.812Z,6.84
2023-01-09T13:36:36.215Z,6.79
2023-01-09T13:39:07.310Z,6.81
2023-01-09T13:42:07.024Z,6.73
2023-01-09T13:44:36.223Z,6.70
2023-01-09T13:47:06.011Z,6.67
2023-01-09T13:50:03.161Z,6.66
2023-01-09T13:52:37.367Z,6.69
2023-01-09T13:55:30.207Z,6.65
2023-01-09T13:58:29.406Z,6.55
2023-01-09T14:01:05.191Z,6.42
2023-01-09T14:03:37.940Z,6.37
2023-01-09T14:06:20.176Z,6.33
2023-01-09T14:09:06.680Z,6.33
2023-01-09T14:11:35.968Z,6.29
2023-01-09T14:14:21.621Z,6.28
2023-01-09T14:16:51.243Z,6.28
2023-01-09T14:19:38.287Z,6.26
2023-01-09T14:22:11.107Z,6.29
2023-01-09T14:24:44.101Z,6.26
2023-01-09T14:28:04.285Z,6.28
2023-01-09T14:30:38.868Z,6.28
2023-01-09T14:33:29.999Z,6.29
2023-01-09T14:36:12.527Z,6.26
2023-01-09T14:38:46.843Z,6.26
2023-01-09T14:41:48.904Z,6.24
2023-01-09T14:44:29.888Z,6.23
2023-01-09T14:47:08.207Z,6.27
2023-01-09T14:49:42.369Z,6.20
2023-01-09T14:52:22.466Z,6.17
2023-01-09T14:54:53.495Z,6.15
2023-01-09T14:57:28.281Z,6.16
2023-01-09T15:00:02.888Z,6.13
2023-01-09T15:02:37.933Z,6.14
2023-01-09T15:05:11.685Z,6.06
2023-01-09T15:07:45.500Z,6.09
2023-01-09T15:10:20.392Z,6.07
2023-01-09T15:12:52.946Z,6.07
2023-01-09T15:15:23.993Z,6.05
2023-01-09T15:17:58.133Z,6.04
2023-01-09T15:20:31.141Z,6.09
2023-01-09T15:23:01.812Z,6.09
2023-01-09T15:25:38.816Z,6.11
2023-01-09T15:28:29.608Z,6.11
2023-01-09T15:31:05.414Z,6.08
2023-01-09T15:33:39.418Z,6.12
2023-01-09T15:36:16.549Z,6.04
2023-01-09T15:38:46.821Z,5.90
2023-01-09T15:41:40.811Z,5.82
2023-01-09T15:44:17.358Z,5.73
2023-01-09T15:46:50.261Z,5.77
2023-01-09T15:49:22.021Z,5.74
2023-01-09T15:51:52.831Z,5.66
2023-01-09T15:54:30.299Z,5.60
2023-01-09T15:57:34.263Z,5.69
2023-01-09T16:00:45.398Z,5.56
2023-01-09T16:03:25.023Z,5.53
2023-01-09T16:06:05.768Z,5.53
2023-01-09T16:08:39.495Z,5.57
2023-01-09T16:11:18.297Z,5.53
2023-01-09T16:13:48.810Z,5.44
2023-01-09T16:16:30.696Z,5.36
2023-01-09T16:19:00.988Z,5.32
2023-01-09T16:21:37.543Z,5.27
2023-01-09T16:24:27.852Z,5.24
2023-01-09T16:27:24.182Z,5.22
2023-01-09T16:29:58.002Z,5.19
2023-01-09T16:32:31.405Z,5.16
2023-01-09T16:35:06.038Z,5.20
2023-01-09T16:37:38.163Z,5.16
2023-01-09T16:40:32.251Z,5.09
2023-01-09T16:43:03.975Z,5.17
2023-01-09T16:45:38.876Z,5.04
2023-01-09T16:48:15.030Z,5.02
2023-01-09T16:50:45.448Z,5.00
2023-01-09T16:53:21.984Z,4.93
2023-01-09T16:55:53.599Z,4.94
2023-01-09T16:58:27.352Z,4.91
2023-01-09T17:00:57.073Z,4.88
2023-01-09T17:03:27.688Z,4.89
2023-01-09T17:06:03.238Z,4.94
2023-01-09T17:08:38.030Z,4.95
2023-01-09T17:11:23.290Z,4.88
2023-01-09T17:13:52.570Z,4.89
2023-01-09T17:16:22.949Z,4.89
2023-01-09T17:18:52.488Z,5.01
2023-01-09T17:21:25.513Z,5.02
2023-01-09T17:24:10.574Z,5.03
2023-01-09T17:27:01.722Z,4.86
2023-01-09T17:29:31.375Z,4.77
2023-01-09T17:32:04.031Z,4.73
2023-01-09T17:34:34.467Z,4.71
2023-01-09T17:37:04.909Z,4.74
2023-01-09T17:39:35.612Z,4.75
2023-01-09T17:42:04.967Z,4.79
2023-01-09T17:44:34.223Z,4.73
2023-01-09T17:47:03.615Z,5.15
2023-01-09T17:49:34.123Z,4.98
2023-01-09T17:52:06.073Z,4.96
2023-01-09T17:54:36.875Z,5.20
2023-01-09T17:57:08.334Z,5.47
2023-01-09T17:59:37.871Z,5.36
2023-01-09T18:02:07.596Z,5.24
2023-01-09T18:04:39.617Z,5.22
2023-01-09T18:07:11.141Z,5.20
2023-01-09T18:09:41.918Z,5.07
2023-01-09T18:12:11.419Z,5.06
2023-01-09T18:14:42.126Z,5.06
2023-01-09T18:17:16.292Z,5.02
2023-01-09T18:19:46.615Z,4.95
2023-01-09T18:22:19.071Z,4.95
2023-01-09T18:24:52.604Z,4.93
2023-01-09T18:27:22.253Z,4.97
2023-01-09T18:29:51.643Z,4.88
2023-01-09T18:32:20.893Z,4.85
2023-01-09T18:34:50.937Z,4.89
2023-01-09T18:37:22.882Z,4.87
2023-01-09T18:39:56.666Z,4.78
2023-01-09T18:42:26.390Z,4.74
2023-01-09T18:44:55.756Z,4.82
2023-01-09T18:47:25.360Z,4.87
2023-01-09T18:49:54.733Z,4.78
2023-01-09T18:52:31.327Z,4.72
2023-01-09T18:55:02.470Z,4.68
2023-01-09T18:57:32.917Z,4.70
2023-01-09T19:00:09.509Z,4.66
2023-01-09T19:02:38.904Z,4.74
2023-01-09T19:05:09.473Z,4.69
2023-01-09T19:07:41.170Z,4.70
2023-01-09T19:10:13.891Z,4.62
2023-01-09T19:12:45.304Z,4.59
2023-01-09T19:15:15.037Z,4.60
2023-01-09T19:17:44.632Z,4.67
2023-01-09T19:20:16.362Z,4.64
2023-01-09T19:22:45.628Z,4.65
2023-01-09T19:25:16.828Z,4.67
2023-01-09T19:27:53.498Z,4.64
2023-01-09T19:30:23.136Z,4.59
2023-01-09T19:32:52.593Z,4.54
2023-01-09T19:35:26.783Z,4.61
2023-01-09T19:37:56.199Z,4.55
2023-01-09T19:40:29.355Z,4.59
2023-01-09T19:43:00.935Z,4.54
2023-01-09T19:45:32.865Z,4.56
2023-01-09T19:48:06.216Z,4.57
2023-01-09T19:50:39.784Z,4.65
2023-01-09T19:53:14.773Z,4.65
2023-01-09T19:56:13.246Z,4.57
2023-01-09T19:58:52.370Z,4.55
2023-01-09T20:01:24.942Z,4.50
2023-01-09T20:04:03.504Z,4.45
2023-01-09T20:06:35.069Z,4.52
2023-01-09T20:09:07.919Z,4.53
2023-01-09T20:12:35.734Z,4.50
2023-01-09T20:15:14.933Z,4.47
2023-01-09T20:17:45.129Z,4.47
2023-01-09T20:20:29.960Z,4.49
2023-01-09T20:22:59.216Z,4.49
2023-01-09T20:25:28.759Z,4.45
2023-01-09T20:28:01.472Z,4.45
2023-01-09T20:30:34.348Z,4.45
2023-01-09T20:33:08.700Z,4.41
2023-01-09T20:35:44.952Z,4.37
2023-01-09T20:38:14.498Z,4.38
2023-01-09T20:40:44.601Z,4.33
2023-01-09T20:43:15.264Z,4.30
2023-01-09T20:45:45.610Z,4.29
2023-01-09T20:48:15.138Z,4.32
2023-01-09T20:50:47.811Z,4.27
2023-01-09T20:53:18.026Z,4.22
2023-01-09T20:55:47.757Z,4.21
2023-01-09T20:58:19.619Z,4.22
2023-01-09T21:00:51.208Z,4.20
2023-01-09T21:03:25.498Z,4.20
2023-01-09T21:05:55.006Z,4.21
2023-01-09T21:08:25.365Z,4.13
2023-01-09T21:10:58.230Z,4.04
2023-01-09T21:13:30.401Z,4.04
2023-01-09T21:16:02.913Z,4.02
2023-01-09T21:18:33.791Z,4.05
2023-01-09T21:21:05.640Z,4.06
2023-01-09T21:23:35.339Z,4.31
2023-01-09T21:26:10.784Z,4.18
2023-01-09T21:28:46.818Z,4.09
2023-01-09T21:31:19.334Z,4.02
2023-01-09T21:33:50.773Z,4.28
2023-01-09T21:36:22.570Z,4.06
2023-01-09T21:38:58.326Z,4.27
2023-01-09T21:41:45.010Z,4.13
2023-01-09T21:44:33.261Z,4.07
2023-01-09T21:47:05.243Z,3.98
2023-01-09T21:49:39.095Z,4.07
2023-01-09T21:52:09.788Z,3.96
2023-01-09T21:54:42.681Z,3.91
2023-01-09T21:57:14.221Z,3.85
2023-01-09T21:59:45.175Z,3.80
2023-01-09T22:02:16.209Z,3.93
2023-01-09T22:04:49.141Z,3.96
2023-01-09T22:07:21.365Z,3.97
2023-01-09T22:09:50.844Z,4.02
2023-01-09T22:12:39.571Z,4.11
2023-01-09T22:15:11.654Z,4.07
2023-01-09T22:17:41.049Z,4.01
2023-01-09T22:20:12.432Z,4.00
2023-01-09T22:22:44.073Z,4.04
2023-01-09T22:25:13.344Z,4.06
2023-01-09T22:27:49.535Z,4.07
2023-01-09T22:30:20.437Z,4.06
2023-01-09T22:32:49.873Z,4.13
2023-01-09T22:35:20.362Z,4.17
2023-01-09T22:37:49.722Z,4.18
2023-01-09T22:40:19.527Z,4.12
2023-01-09T22:42:48.784Z,3.98
2023-01-09T22:45:19.640Z,4.06
2023-01-09T22:47:49.049Z,4.02
2023-01-09T22:50:19.002Z,3.99
2023-01-09T22:53:08.521Z,3.99
2023-01-09T22:55:37.882Z,4.08
2023-01-09T22:58:07.341Z,4.01
2023-01-09T23:00:38.089Z,3.84
2023-01-09T23:03:07.388Z,4.11
2023-01-09T23:05:36.716Z,3.93
2023-01-09T23:08:06.541Z,4.04
2023-01-09T23:10:35.901Z,3.91
2023-01-09T23:13:18.138Z,3.81
2023-01-09T23:15:55.959Z,3.70
2023-01-09T23:18:25.811Z,3.71
2023-01-09T23:20:57.537Z,3.73
2023-01-09T23:23:28.679Z,3.94
2023-01-09T23:26:01.721Z,3.88
2023-01-09T23:28:31.745Z,3.76
2023-01-09T23:31:02.751Z,3.71
2023-01-09T23:33:31.983Z,3.80
2023-01-09T23:36:01.490Z,3.72
2023-01-09T23:38:30.961Z,3.66
2023-01-09T23:41:00.363Z,3.69
2023-01-09T23:43:28.637Z,3.71
2023-01-09T23:45:58.078Z,3.71
2023-01-09T23:48:28.898Z,3.69
2023-01-09T23:50:58.345Z,3.61
2023-01-09T23:53:31.006Z,3.63
2023-01-09T23:56:01.415Z,3.58
2023-01-09T23:58:32.632Z,3.58
